Soda Creek, Canada
Current Conditions -  °F | °C
As of 5:00 PM on Monday 26 Jan 2015 (Local Time) from CYWL Reporting Station
Broken Clouds Broken Clouds  
Wind Chill: 39°   Ceiling: 22000
Heat Index: 39°   Visibility: 15mi
Dew Point: 30°   Wind: 2mph
Humidity: 70%   Direction: NA
Pressure: 29.72"   Gusts: NA
Location:  52.34°N, 122.29°W
Report Text: CYWL 270100Z VRB02KT 15SM SCT080 BKN220 04/M01 A2972 RMK AC4CI3 SLP088
Loading
Personal Weather Stations






























Interactive Weather Map New forecast layout! Learn more

10-Day Weather Forecast

Advertisements
Track Severe Weather on mobile